createdAt,value
2022-10-26T00:00:22.493Z,10.30
2022-10-26T00:02:49.070Z,10.68
2022-10-26T00:05:16.117Z,10.38
2022-10-26T00:07:42.533Z,10.32
2022-10-26T00:10:08.983Z,10.10
2022-10-26T00:12:35.274Z,10.68
2022-10-26T00:15:01.564Z,9.82
2022-10-26T00:17:27.881Z,10.55
2022-10-26T00:19:54.910Z,10.18
2022-10-26T00:22:21.531Z,9.98
2022-10-26T00:24:47.871Z,10.88
2022-10-26T00:27:14.367Z,11.23
2022-10-26T00:29:40.745Z,10.82
2022-10-26T00:32:07.118Z,9.45
2022-10-26T00:34:33.414Z,10.32
2022-10-26T00:36:59.718Z,10.13
2022-10-26T00:39:26.054Z,10.43
2022-10-26T00:41:52.353Z,10.73
2022-10-26T00:44:37.754Z,10.45
2022-10-26T00:47:04.782Z,10.77
2022-10-26T00:49:31.075Z,11.25
2022-10-26T00:51:57.592Z,9.95
2022-10-26T00:54:23.888Z,10.32
2022-10-26T00:56:51.901Z,10.70
2022-10-26T00:59:18.848Z,9.48
2022-10-26T01:01:46.636Z,10.43
2022-10-26T01:04:14.665Z,10.35
2022-10-26T01:06:42.312Z,9.50
2022-10-26T01:09:09.633Z,9.27
2022-10-26T01:11:36.967Z,9.52
2022-10-26T01:14:04.679Z,8.68
2022-10-26T01:16:39.481Z,8.80
2022-10-26T01:19:24.085Z,8.60
2022-10-26T01:21:55.283Z,8.23
2022-10-26T01:24:27.434Z,8.52
2022-10-26T01:26:54.086Z,8.30
2022-10-26T01:29:33.604Z,8.05
2022-10-26T01:32:05.127Z,8.00
2022-10-26T01:34:36.932Z,8.52
2022-10-26T01:37:10.682Z,8.53
2022-10-26T01:39:48.390Z,7.75
2022-10-26T01:42:16.507Z,8.05
2022-10-26T01:44:45.354Z,7.22
2022-10-26T01:47:13.595Z,7.82
2022-10-26T01:49:42.366Z,7.28
2022-10-26T01:52:09.539Z,7.95
2022-10-26T01:57:05.597Z,7.75
2022-10-26T01:59:58.275Z,6.90
2022-10-26T02:02:26.617Z,7.38
2022-10-26T02:05:00.175Z,7.18
2022-10-26T02:07:34.484Z,7.35
2022-10-26T02:10:15.808Z,7.35
2022-10-26T02:12:42.097Z,7.88
2022-10-26T02:15:14.501Z,8.18
2022-10-26T02:17:46.957Z,8.13
2022-10-26T02:22:42.474Z,7.90
2022-10-26T02:25:14.062Z,8.07
2022-10-26T02:27:43.051Z,8.00
2022-10-26T02:30:10.769Z,8.52
2022-10-26T02:32:38.844Z,7.68
2022-10-26T02:35:05.812Z,8.88
2022-10-26T02:37:36.100Z,7.80
2022-10-26T02:40:06.033Z,8.43
2022-10-26T02:42:33.187Z,8.40
2022-10-26T02:45:02.552Z,8.43
2022-10-26T02:47:29.223Z,8.25
2022-10-26T02:49:55.702Z,9.30
2022-10-26T02:52:33.390Z,8.20
2022-10-26T02:55:14.698Z,10.05
2022-10-26T02:57:41.799Z,9.20
2022-10-26T03:02:37.116Z,9.10
2022-10-26T03:05:17.835Z,9.60
2022-10-26T03:07:44.183Z,9.18
2022-10-26T03:10:10.716Z,9.20
2022-10-26T03:12:37.602Z,9.35
2022-10-26T03:15:04.418Z,9.95
2022-10-26T03:17:30.713Z,9.48
2022-10-26T03:19:57.065Z,9.27
2022-10-26T03:22:23.413Z,8.85
2022-10-26T03:24:49.688Z,8.52
2022-10-26T03:27:15.989Z,9.45
2022-10-26T03:29:42.285Z,8.40
2022-10-26T03:32:08.574Z,9.68
2022-10-26T03:34:35.095Z,9.25
2022-10-26T03:37:01.441Z,8.88
2022-10-26T03:39:27.824Z,8.57
2022-10-26T03:41:55.331Z,9.43
2022-10-26T03:44:21.925Z,9.68
2022-10-26T03:46:48.246Z,9.27
2022-10-26T03:49:16.590Z,8.75
2022-10-26T03:51:42.892Z,8.40
2022-10-26T03:54:09.158Z,9.00
2022-10-26T03:56:35.463Z,9.00
2022-10-26T03:59:03.842Z,8.38
2022-10-26T04:01:30.223Z,8.63
2022-10-26T04:03:56.596Z,9.48
2022-10-26T04:06:24.000Z,9.32
2022-10-26T04:08:51.787Z,9.48
2022-10-26T04:11:18.162Z,9.80
2022-10-26T04:13:46.542Z,9.75
2022-10-26T04:16:12.892Z,8.68
2022-10-26T04:18:39.592Z,8.98
2022-10-26T04:21:05.866Z,9.55
2022-10-26T04:23:33.622Z,9.40
2022-10-26T04:25:59.967Z,9.07
2022-10-26T04:28:26.293Z,9.02
2022-10-26T04:30:52.612Z,9.45
2022-10-26T04:33:18.983Z,9.18
2022-10-26T04:35:46.572Z,8.95
2022-10-26T04:38:12.873Z,9.60
2022-10-26T04:40:39.184Z,9.38
2022-10-26T04:43:05.592Z,9.40
2022-10-26T04:45:31.898Z,10.07
2022-10-26T04:48:02.367Z,9.63
2022-10-26T04:50:28.742Z,9.10
2022-10-26T04:52:55.712Z,8.85
2022-10-26T04:55:22.041Z,9.30
2022-10-26T04:57:48.558Z,9.52
2022-10-26T05:00:16.747Z,8.95
2022-10-26T05:02:45.151Z,8.77
2022-10-26T05:05:14.222Z,9.85
2022-10-26T05:07:42.641Z,9.20
2022-10-26T05:10:10.275Z,8.43
2022-10-26T05:12:36.611Z,8.55
2022-10-26T05:15:05.186Z,9.02
2022-10-26T05:17:35.189Z,7.57
2022-10-26T05:20:05.798Z,10.00
2022-10-26T05:22:32.545Z,8.88
2022-10-26T05:24:58.961Z,9.10
2022-10-26T05:27:25.230Z,8.98
2022-10-26T05:29:51.512Z,8.63
2022-10-26T05:32:17.835Z,9.27
2022-10-26T05:34:44.183Z,7.85
2022-10-26T05:37:10.515Z,8.70
2022-10-26T05:39:37.759Z,8.43
2022-10-26T05:42:05.570Z,9.48
2022-10-26T05:44:31.916Z,8.07
2022-10-26T05:46:59.622Z,8.60
2022-10-26T05:49:25.887Z,8.30
2022-10-26T05:51:52.172Z,7.88
2022-10-26T05:54:18.426Z,9.10
2022-10-26T05:56:44.857Z,8.93
2022-10-26T05:59:12.370Z,7.82
2022-10-26T06:01:53.954Z,8.57
2022-10-26T06:04:30.705Z,7.97
2022-10-26T06:06:57.499Z,7.95
2022-10-26T06:09:23.952Z,8.05
2022-10-26T06:14:17.039Z,7.75
2022-10-26T06:17:06.568Z,8.27
2022-10-26T06:19:36.782Z,8.13
2022-10-26T06:22:21.919Z,7.50
2022-10-26T06:24:48.501Z,7.97
2022-10-26T06:27:20.816Z,7.50
2022-10-26T06:29:56.339Z,7.38
2022-10-26T06:32:24.598Z,6.95
2022-10-26T06:34:52.456Z,7.75
2022-10-26T06:37:19.493Z,7.57
2022-10-26T06:39:48.956Z,7.22
2022-10-26T06:42:17.843Z,6.83
2022-10-26T06:44:44.568Z,7.57
2022-10-26T06:47:27.029Z,7.68
2022-10-26T06:50:02.755Z,7.50
2022-10-26T06:52:58.280Z,7.32
2022-10-26T06:55:26.707Z,7.63
2022-10-26T06:57:53.192Z,7.32
2022-10-26T07:00:20.730Z,7.57
2022-10-26T07:02:49.573Z,6.60
2022-10-26T07:05:16.565Z,7.22
2022-10-26T07:07:44.278Z,6.38
2022-10-26T07:10:11.063Z,7.13
2022-10-26T07:12:37.570Z,6.70
2022-10-26T07:15:04.246Z,6.95
2022-10-26T07:17:30.660Z,7.13
2022-10-26T07:19:57.014Z,6.75
2022-10-26T07:22:26.053Z,6.53
2022-10-26T07:24:53.383Z,6.63
2022-10-26T07:27:19.768Z,6.85
2022-10-26T07:29:46.063Z,6.18
2022-10-26T07:32:15.328Z,7.10
2022-10-26T07:34:41.625Z,6.47
2022-10-26T07:37:07.948Z,6.85
2022-10-26T07:39:34.270Z,7.13
2022-10-26T07:42:01.671Z,6.63
2022-10-26T07:44:27.961Z,6.25
2022-10-26T07:46:54.299Z,7.20
2022-10-26T07:49:26.171Z,6.43
2022-10-26T07:51:54.129Z,6.18
2022-10-26T07:54:21.479Z,6.35
2022-10-26T07:56:53.783Z,6.65
2022-10-26T07:59:20.091Z,6.45
2022-10-26T08:01:46.550Z,6.93
2022-10-26T08:04:14.231Z,6.28
2022-10-26T08:06:40.565Z,5.90
2022-10-26T08:09:09.144Z,6.55
2022-10-26T08:11:37.098Z,5.82
2022-10-26T08:14:03.898Z,5.28
2022-10-26T08:16:31.396Z,5.93
2022-10-26T08:18:57.736Z,5.43
2022-10-26T08:21:36.239Z,5.68
2022-10-26T08:24:08.087Z,5.63
2022-10-26T08:26:37.702Z,5.97
2022-10-26T08:29:04.762Z,5.05
2022-10-26T08:31:31.573Z,5.00
2022-10-26T08:33:59.572Z,4.20
2022-10-26T08:36:27.484Z,5.03
2022-10-26T08:38:53.927Z,4.80
2022-10-26T08:41:24.932Z,4.35
2022-10-26T08:43:57.741Z,4.15
2022-10-26T08:46:45.267Z,3.97
2022-10-26T08:49:22.606Z,4.70
2022-10-26T08:51:51.422Z,4.10
2022-10-26T08:54:36.427Z,4.13
2022-10-26T08:57:10.974Z,4.00
2022-10-26T08:59:46.953Z,4.00
2022-10-26T09:02:14.290Z,3.40
2022-10-26T09:04:40.876Z,4.15
2022-10-26T09:07:14.808Z,3.97
2022-10-26T09:09:46.539Z,4.07
2022-10-26T09:12:17.807Z,3.77
2022-10-26T09:14:58.643Z,4.25
2022-10-26T09:17:25.567Z,4.05
2022-10-26T09:20:01.279Z,3.72
2022-10-26T09:22:41.955Z,4.60
2022-10-26T09:25:34.595Z,3.80
2022-10-26T09:28:07.530Z,3.90
2022-10-26T09:33:26.836Z,4.22
2022-10-26T09:35:59.473Z,4.80
2022-10-26T09:38:27.718Z,4.07
2022-10-26T09:41:14.236Z,4.30
2022-10-26T09:46:23.437Z,4.20
2022-10-26T09:48:53.839Z,3.83
2022-10-26T09:51:20.399Z,3.97
2022-10-26T09:53:48.204Z,3.88
2022-10-26T09:56:18.425Z,3.83
2022-10-26T09:58:46.812Z,3.65
2022-10-26T10:01:38.194Z,4.22
2022-10-26T10:04:13.538Z,3.28
2022-10-26T10:06:40.150Z,3.20
2022-10-26T10:09:21.183Z,2.78
2022-10-26T10:11:58.111Z,3.25
2022-10-26T10:14:24.437Z,3.33
2022-10-26T10:16:58.891Z,3.50
2022-10-26T10:19:35.677Z,3.13
2022-10-26T10:22:09.459Z,3.33
2022-10-26T10:24:36.936Z,3.22
2022-10-26T10:27:15.630Z,3.20
2022-10-26T10:30:01.312Z,2.72
2022-10-26T10:32:35.371Z,3.30
2022-10-26T10:35:22.939Z,26.35
2022-10-26T10:37:50.314Z,4.40
2022-10-26T10:40:27.471Z,17.10
2022-10-26T10:43:02.913Z,4.60
2022-10-26T10:45:32.306Z,3.03
2022-10-26T10:48:06.097Z,3.78
2022-10-26T10:50:33.326Z,3.65
2022-10-26T10:53:31.837Z,3.00
2022-10-26T10:56:04.370Z,4.22
2022-10-26T10:58:35.734Z,3.00
2022-10-26T11:01:02.322Z,3.25
2022-10-26T11:03:35.743Z,2.80
2022-10-26T11:06:14.229Z,4.65
2022-10-26T11:08:50.343Z,3.42
2022-10-26T11:11:20.575Z,3.30
2022-10-26T11:13:59.936Z,3.55
2022-10-26T11:16:29.624Z,3.42
2022-10-26T11:19:16.453Z,3.80
2022-10-26T11:21:44.067Z,3.47
2022-10-26T11:24:23.907Z,3.25
2022-10-26T11:26:55.519Z,4.03
2022-10-26T11:29:23.988Z,3.17
2022-10-26T11:31:57.432Z,3.40
2022-10-26T11:34:27.347Z,3.70
2022-10-26T11:37:05.950Z,3.75
2022-10-26T11:39:44.135Z,3.35
2022-10-26T11:42:46.497Z,3.22
2022-10-26T11:45:18.415Z,2.65
2022-10-26T11:48:02.705Z,2.83
2022-10-26T11:50:33.062Z,2.60
2022-10-26T11:53:07.287Z,2.50
2022-10-26T11:55:33.704Z,3.00
2022-10-26T11:58:02.796Z,2.72
2022-10-26T12:00:32.116Z,3.28
2022-10-26T12:03:03.340Z,2.80
2022-10-26T12:05:32.627Z,3.58
2022-10-26T12:08:04.329Z,2.55
2022-10-26T12:10:33.257Z,2.47
2022-10-26T12:13:13.991Z,2.97
2022-10-26T12:16:05.409Z,2.40
2022-10-26T12:18:54.513Z,2.70
2022-10-26T12:21:23.933Z,2.58
2022-10-26T12:23:58.922Z,2.70
2022-10-26T12:26:28.825Z,2.53
2022-10-26T12:29:04.139Z,2.85
2022-10-26T12:31:37.440Z,2.55
2022-10-26T12:34:36.091Z,2.80
2022-10-26T12:37:02.441Z,2.70
2022-10-26T12:39:31.582Z,2.53
2022-10-26T12:41:58.861Z,3.13
2022-10-26T12:44:54.454Z,4.63
2022-10-26T12:47:32.691Z,2.58
2022-10-26T12:50:07.879Z,2.90
2022-10-26T12:52:42.468Z,2.40
2022-10-26T12:55:11.832Z,2.30
2022-10-26T12:57:45.585Z,1.75
2022-10-26T13:00:17.668Z,2.50
2022-10-26T13:03:04.018Z,2.30
2022-10-26T13:05:32.365Z,2.17
2022-10-26T13:08:07.259Z,2.13
2022-10-26T13:10:36.199Z,2.30
2022-10-26T13:13:05.202Z,2.20
2022-10-26T13:15:38.722Z,2.42
2022-10-26T13:18:16.757Z,2.72
2022-10-26T13:21:03.375Z,2.70
2022-10-26T13:23:31.305Z,2.60
2022-10-26T13:26:14.832Z,2.83
2022-10-26T13:28:41.077Z,3.63
2022-10-26T13:31:13.527Z,2.72
2022-10-26T13:36:17.055Z,3.13
2022-10-26T13:38:45.131Z,2.67
2022-10-26T13:41:17.332Z,3.17
2022-10-26T13:43:49.850Z,2.83
2022-10-26T13:46:22.723Z,2.60
2022-10-26T13:48:50.004Z,2.55
2022-10-26T13:51:24.969Z,3.22
2022-10-26T13:53:53.723Z,2.42
2022-10-26T13:56:37.893Z,3.13
2022-10-26T13:59:11.989Z,2.78
2022-10-26T14:01:39.736Z,2.65
2022-10-26T14:04:25.850Z,3.15
2022-10-26T14:06:53.108Z,2.42
2022-10-26T14:09:19.929Z,2.80
2022-10-26T14:11:52.999Z,2.40
2022-10-26T14:14:34.184Z,3.15
2022-10-26T14:17:02.979Z,2.45
2022-10-26T14:19:35.064Z,2.55
2022-10-26T14:24:46.649Z,3.63
2022-10-26T14:27:15.546Z,2.72
2022-10-26T14:29:42.049Z,3.35
2022-10-26T14:32:27.431Z,2.58
2022-10-26T14:34:55.866Z,2.75
2022-10-26T14:37:25.552Z,3.13
2022-10-26T14:39:52.020Z,2.90
2022-10-26T14:42:24.847Z,2.80
2022-10-26T14:44:51.653Z,2.88
2022-10-26T14:47:23.476Z,3.03
2022-10-26T14:49:49.938Z,2.47
2022-10-26T14:52:27.631Z,3.25
2022-10-26T14:55:11.676Z,2.50
2022-10-26T14:57:39.195Z,2.35
2022-10-26T15:00:13.732Z,2.35
2022-10-26T15:02:40.447Z,2.72
2022-10-26T15:05:33.221Z,2.10
2022-10-26T15:08:03.069Z,2.00
2022-10-26T15:10:45.252Z,2.35
2022-10-26T15:13:19.920Z,2.22
2022-10-26T15:15:49.408Z,2.40
2022-10-26T15:18:28.834Z,2.42
2022-10-26T15:20:56.335Z,2.90
2022-10-26T15:23:23.153Z,2.67
2022-10-26T15:25:54.481Z,1.98
2022-10-26T15:28:31.040Z,1.90
2022-10-26T15:31:01.482Z,2.25
2022-10-26T15:33:27.959Z,2.13
2022-10-26T15:36:13.059Z,2.00
2022-10-26T15:38:39.394Z,1.88
2022-10-26T15:41:20.928Z,2.10
2022-10-26T15:43:48.067Z,2.15
2022-10-26T15:46:14.671Z,1.92
2022-10-26T15:48:41.152Z,1.98
2022-10-26T15:51:11.119Z,2.50
2022-10-26T15:53:37.396Z,2.20
2022-10-26T15:56:05.399Z,2.13
2022-10-26T15:58:31.689Z,1.77
2022-10-26T16:00:58.067Z,2.22
2022-10-26T16:03:25.699Z,2.33
2022-10-26T16:05:57.535Z,2.97
2022-10-26T16:08:24.082Z,2.83
2022-10-26T16:10:51.059Z,2.30
2022-10-26T16:13:17.577Z,2.15
2022-10-26T16:15:44.157Z,2.45
2022-10-26T16:18:10.654Z,2.97
2022-10-26T16:20:39.194Z,2.45
2022-10-26T16:23:08.634Z,2.53
2022-10-26T16:25:41.239Z,2.15
2022-10-26T16:28:08.738Z,3.80
2022-10-26T16:30:36.830Z,8.80
2022-10-26T16:33:03.218Z,2.30
2022-10-26T16:35:29.734Z,2.05
2022-10-26T16:37:56.013Z,2.55
2022-10-26T16:40:24.499Z,2.42
2022-10-26T16:42:51.055Z,2.70
2022-10-26T16:45:17.573Z,2.10
2022-10-26T16:47:43.961Z,2.50
2022-10-26T16:50:11.945Z,2.47
2022-10-26T16:52:38.655Z,2.63
2022-10-26T16:55:06.048Z,2.22
2022-10-26T16:57:32.463Z,2.78
2022-10-26T16:59:59.176Z,2.90
2022-10-26T17:02:25.609Z,3.05
2022-10-26T17:04:51.960Z,2.80
2022-10-26T17:07:18.274Z,2.50
2022-10-26T17:09:44.569Z,2.60
2022-10-26T17:12:11.129Z,2.60
2022-10-26T17:14:37.807Z,3.33
2022-10-26T17:17:04.465Z,2.85
2022-10-26T17:19:30.916Z,2.95
2022-10-26T17:21:57.259Z,3.17
2022-10-26T17:24:28.280Z,2.83
2022-10-26T17:26:55.652Z,3.20
2022-10-26T17:29:21.978Z,3.42
2022-10-26T17:31:49.451Z,2.90
2022-10-26T17:34:19.017Z,2.78
2022-10-26T17:36:47.157Z,2.92
2022-10-26T17:39:13.499Z,2.80
2022-10-26T17:41:39.789Z,2.80
2022-10-26T17:44:07.417Z,3.00
2022-10-26T17:46:34.115Z,3.00
2022-10-26T17:49:01.076Z,2.78
2022-10-26T17:51:28.927Z,3.58
2022-10-26T17:53:55.687Z,3.30
2022-10-26T17:56:22.877Z,2.63
2022-10-26T17:58:53.320Z,3.40
2022-10-26T18:01:19.801Z,3.67
2022-10-26T18:03:46.479Z,3.08
2022-10-26T18:06:12.868Z,3.38
2022-10-26T18:08:39.546Z,3.30
2022-10-26T18:11:07.059Z,3.80
2022-10-26T18:13:33.980Z,3.50
2022-10-26T18:16:04.207Z,4.00
2022-10-26T18:18:35.147Z,3.70
2022-10-26T18:21:05.268Z,3.90
2022-10-26T18:23:33.219Z,3.97
2022-10-26T18:26:14.145Z,4.10
2022-10-26T18:28:43.314Z,4.15
2022-10-26T18:31:10.947Z,3.95
2022-10-26T18:33:38.084Z,4.15
2022-10-26T18:36:06.309Z,3.88
2022-10-26T18:38:33.294Z,4.35
2022-10-26T18:40:59.970Z,3.83
2022-10-26T18:43:27.816Z,4.43
2022-10-26T18:46:03.524Z,4.30
2022-10-26T18:48:29.825Z,3.78
2022-10-26T18:50:56.446Z,4.43
2022-10-26T18:53:29.397Z,5.30
2022-10-26T18:55:59.237Z,4.70
2022-10-26T18:58:30.154Z,4.22
2022-10-26T19:03:27.608Z,4.60
2022-10-26T19:05:53.945Z,4.30
2022-10-26T19:08:22.698Z,4.50
2022-10-26T19:10:53.999Z,4.60
2022-10-26T19:13:22.811Z,4.78
2022-10-26T19:15:58.915Z,4.13
2022-10-26T19:18:26.715Z,4.88
2022-10-26T19:20:59.491Z,4.28
2022-10-26T19:23:30.621Z,4.18
2022-10-26T19:25:57.259Z,4.93
2022-10-26T19:28:23.766Z,4.72
2022-10-26T19:30:50.075Z,5.10
2022-10-26T19:33:17.144Z,4.82
2022-10-26T19:35:43.534Z,5.78
2022-10-26T19:38:09.867Z,4.95
2022-10-26T19:40:36.195Z,5.15
2022-10-26T19:43:04.188Z,4.80
2022-10-26T19:45:30.766Z,5.68
2022-10-26T19:47:57.452Z,5.38
2022-10-26T19:50:23.830Z,5.10
2022-10-26T19:52:50.719Z,5.10
2022-10-26T19:55:17.331Z,5.32
2022-10-26T19:57:43.708Z,4.88
2022-10-26T20:00:10.256Z,4.15
2022-10-26T20:02:38.610Z,4.30
2022-10-26T20:05:07.024Z,4.93
2022-10-26T20:07:33.355Z,4.40
2022-10-26T20:09:59.639Z,3.85
2022-10-26T20:12:25.933Z,4.50
2022-10-26T20:14:52.229Z,5.75
2022-10-26T20:17:19.984Z,5.53
2022-10-26T20:19:47.748Z,5.30
2022-10-26T20:22:14.099Z,5.35
2022-10-26T20:24:40.438Z,5.18
2022-10-26T20:27:06.729Z,5.78
2022-10-26T20:29:35.699Z,5.32
2022-10-26T20:32:02.356Z,5.95
2022-10-26T20:36:59.991Z,6.70
2022-10-26T20:39:30.497Z,7.20
2022-10-26T20:41:56.965Z,6.70
2022-10-26T20:44:27.538Z,7.57
2022-10-26T20:46:54.856Z,8.32
2022-10-26T20:49:24.059Z,7.68
2022-10-26T20:52:18.996Z,6.78
2022-10-26T20:54:52.592Z,6.65
2022-10-26T20:57:20.703Z,6.72
2022-10-26T20:59:49.976Z,7.32
2022-10-26T21:02:16.438Z,6.25
2022-10-26T21:04:43.231Z,6.50
2022-10-26T21:07:10.240Z,6.55
2022-10-26T21:09:36.811Z,6.63
2022-10-26T21:12:03.560Z,6.78
2022-10-26T21:14:29.878Z,6.75
2022-10-26T21:16:56.243Z,7.13
2022-10-26T21:19:22.809Z,7.03
2022-10-26T21:21:49.421Z,6.57
2022-10-26T21:24:18.631Z,6.40
2022-10-26T21:26:45.981Z,6.50
2022-10-26T21:29:13.030Z,7.22
2022-10-26T21:31:39.562Z,7.57
2022-10-26T21:34:07.250Z,7.00
2022-10-26T21:36:33.571Z,7.38
2022-10-26T21:39:00.994Z,7.32
2022-10-26T21:41:27.633Z,6.55
2022-10-26T21:44:03.450Z,6.68
2022-10-26T21:46:37.370Z,7.45
2022-10-26T21:49:03.778Z,7.43
2022-10-26T21:51:30.160Z,7.60
2022-10-26T21:53:57.872Z,8.98
2022-10-26T21:56:24.587Z,7.28
2022-10-26T21:58:50.962Z,7.30
2022-10-26T22:01:18.767Z,8.05
2022-10-26T22:03:45.752Z,7.97
2022-10-26T22:06:15.427Z,8.02
2022-10-26T22:08:42.379Z,8.27
2022-10-26T22:11:13.003Z,8.68
2022-10-26T22:13:41.919Z,8.65
2022-10-26T22:16:12.265Z,8.02
2022-10-26T22:18:39.511Z,8.50
2022-10-26T22:21:07.921Z,8.35
2022-10-26T22:23:35.163Z,8.95
2022-10-26T22:26:02.259Z,8.43
2022-10-26T22:28:30.987Z,8.73
2022-10-26T22:31:08.283Z,8.23
2022-10-26T22:33:35.976Z,8.20
2022-10-26T22:36:06.342Z,8.38
2022-10-26T22:38:32.756Z,8.55
2022-10-26T22:40:59.337Z,7.60
2022-10-26T22:43:28.678Z,8.27
2022-10-26T22:46:01.930Z,7.93
2022-10-26T22:48:28.558Z,7.88
2022-10-26T22:50:55.124Z,8.05
2022-10-26T22:53:21.480Z,7.47
2022-10-26T22:55:47.965Z,7.20
2022-10-26T22:58:14.740Z,7.53
2022-10-26T23:00:41.122Z,7.43
2022-10-26T23:03:07.427Z,7.57
2022-10-26T23:05:33.724Z,7.07
2022-10-26T23:08:01.418Z,6.85
2022-10-26T23:10:27.807Z,7.85
2022-10-26T23:12:54.588Z,7.57
2022-10-26T23:15:21.175Z,8.27
2022-10-26T23:17:49.155Z,7.70
2022-10-26T23:20:15.772Z,7.47
2022-10-26T23:22:42.091Z,7.13
2022-10-26T23:25:08.597Z,7.95
2022-10-26T23:27:34.875Z,6.85
2022-10-26T23:30:01.153Z,7.47
2022-10-26T23:32:27.562Z,8.13
2022-10-26T23:34:54.209Z,7.70
2022-10-26T23:37:20.513Z,8.30
2022-10-26T23:39:46.790Z,7.80
2022-10-26T23:42:14.138Z,8.13
2022-10-26T23:44:40.408Z,8.05
2022-10-26T23:47:06.708Z,8.73
2022-10-26T23:49:33.014Z,8.13
2022-10-26T23:51:59.469Z,8.00
2022-10-26T23:54:26.764Z,8.05
2022-10-26T23:56:53.156Z,9.20
2022-10-26T23:59:20.288Z,8.10
